Dyess Air Force Base
KDYS : now visible

Airfield :











YOU CAN JOIN US ON...

 
LOGIN :

Register | Disclaimer

   EN    FR    IT 

 









Legend :    VFR   Marginal VFR   IFR   Intensive IFR   Very Intensive IFR
Visi :
Ceiling :
>= 8 km
>= 3000ft
5 to 8 km
1000 to 3000 ft
1500m to 5 km
500 to 1000 ft
800 to 1500m
200 to 500 ft
< 800m
< 200 ft
Symbols :   Thunderstorms  Fog  Heavy snow  Heavy precipitations  Wind > 20 kt






- Airport Elevation : 1789 ft


KDYS - Dyess Air Force Base

CURRENT METAR :
  • 151656Z AUTO 32019G28KT 10SM CLR 08/M12 A3022 RMK AO2 PK WND 32028/51 SLP244 T00791120

EXPIRED METARs :
  • 151556Z AUTO 31012KT 10SM CLR 06/M11 A3023 RMK AO2 SLP245 T00601107
  • 151456Z AUTO 31010KT 10SM CLR 03/M10 A3021 RMK AO2 SLP243 T00301099 52008

TAF TAF KDYS
Valid from the 15 at 13:00 until the 16 at 19:00 UTC


151300Z 1513/1619 29006KT 9999 SKC QNH3019INS
BECMG 1516/1517 31015G25KT 9999 SKC QNH3012INS
BECMG 1518/1519 31020G30KT 9999 SKC QNH3004INS
BECMG 1522/1523 29012KT 9999 SKC QNH3004INS
BECMG 1609/1610 28006KT 9999 SKC QNH3006INS TX11/1521Z TNM02/1514Z
KZFW FIR / North America



MET'MAP, your aeronautical weather chart ! - Copyright ORBIFLY December 2007 - Disclaimer

ORBIFLY MET'MAP TEAM :

Programming & Development : Alexandra Zaïnal
Concept & original design : Baudouin d'Aumeries
Assistance for programming : Marc-Olivier Méhu
Technical & hardware support : Manuel Goepfert

Contact : metmap@orbifly.com




SOURCES & CREDITS :

   NOAA       Earth
Advisory